sensor_id;sensor_type;location;lat;lon;timestamp;P1;durP1;ratioP1;P2;durP2;ratioP2
50231;SDS011;36118;56.468;84.952;2023-07-08T00:01:08;35.80;;;24.30;;
50231;SDS011;36118;56.468;84.952;2023-07-08T00:06:17;35.03;;;26.13;;
50231;SDS011;36118;56.468;84.952;2023-07-08T00:11:22;30.33;;;25.92;;
50231;SDS011;36118;56.468;84.952;2023-07-08T00:16:25;37.70;;;25.95;;
50231;SDS011;36118;56.468;84.952;2023-07-08T00:21:29;34.42;;;26.55;;
50231;SDS011;36118;56.468;84.952;2023-07-08T00:26:32;34.88;;;26.80;;
50231;SDS011;36118;56.468;84.952;2023-07-08T00:31:36;35.95;;;29.00;;
50231;SDS011;36118;56.468;84.952;2023-07-08T00:36:39;36.30;;;28.58;;
50231;SDS011;36118;56.468;84.952;2023-07-08T00:41:41;43.60;;;29.17;;
50231;SDS011;36118;56.468;84.952;2023-07-08T00:52:16;43.47;;;31.40;;
50231;SDS011;36118;56.468;84.952;2023-07-08T00:57:22;38.25;;;30.67;;
50231;SDS011;36118;56.468;84.952;2023-07-08T01:02:28;45.08;;;32.78;;
50231;SDS011;36118;56.468;84.952;2023-07-08T01:07:32;41.78;;;33.75;;
50231;SDS011;36118;56.468;84.952;2023-07-08T01:17:42;50.20;;;41.88;;
50231;SDS011;36118;56.468;84.952;2023-07-08T01:22:47;49.17;;;41.42;;
50231;SDS011;36118;56.468;84.952;2023-07-08T01:27:52;50.03;;;43.50;;
50231;SDS011;36118;56.468;84.952;2023-07-08T01:33:01;48.60;;;43.30;;
50231;SDS011;36118;56.468;84.952;2023-07-08T01:38:08;54.75;;;43.92;;
50231;SDS011;36118;56.468;84.952;2023-07-08T01:43:15;52.40;;;42.95;;
50231;SDS011;36118;56.468;84.952;2023-07-08T01:48:21;57.22;;;42.80;;
50231;SDS011;36118;56.468;84.952;2023-07-08T01:53:35;48.60;;;41.47;;
50231;SDS011;36118;56.468;84.952;2023-07-08T01:58:40;31.70;;;19.52;;
50231;SDS011;36118;56.468;84.952;2023-07-08T02:03:43;27.35;;;17.00;;
50231;SDS011;36118;56.468;84.952;2023-07-08T02:08:49;23.30;;;16.15;;
50231;SDS011;36118;56.468;84.952;2023-07-08T02:13:53;24.87;;;15.27;;
50231;SDS011;36118;56.468;84.952;2023-07-08T02:18:56;18.95;;;15.23;;
50231;SDS011;36118;56.468;84.952;2023-07-08T02:24:00;21.38;;;15.82;;
50231;SDS011;36118;56.468;84.952;2023-07-08T02:29:03;25.55;;;15.73;;
50231;SDS011;36118;56.468;84.952;2023-07-08T02:34:07;23.40;;;15.65;;
50231;SDS011;36118;56.468;84.952;2023-07-08T02:39:10;24.92;;;14.70;;
50231;SDS011;36118;56.468;84.952;2023-07-08T02:44:14;21.33;;;15.13;;
50231;SDS011;36118;56.468;84.952;2023-07-08T02:49:17;19.05;;;14.57;;
50231;SDS011;36118;56.468;84.952;2023-07-08T02:54:20;19.05;;;14.23;;
50231;SDS011;36118;56.468;84.952;2023-07-08T02:59:23;22.27;;;13.90;;
50231;SDS011;36118;56.468;84.952;2023-07-08T03:04:26;18.05;;;14.02;;
50231;SDS011;36118;56.468;84.952;2023-07-08T03:09:29;19.65;;;13.98;;
50231;SDS011;36118;56.468;84.952;2023-07-08T03:14:32;17.75;;;12.80;;
50231;SDS011;36118;56.468;84.952;2023-07-08T03:19:35;20.45;;;12.38;;
50231;SDS011;36118;56.468;84.952;2023-07-08T03:24:38;18.67;;;11.43;;
50231;SDS011;36118;56.468;84.952;2023-07-08T03:29:52;13.52;;;10.27;;
50231;SDS011;36118;56.468;84.952;2023-07-08T03:34:56;11.20;;;7.23;;
50231;SDS011;36118;56.468;84.952;2023-07-08T03:40:00;10.02;;;8.27;;
50231;SDS011;36118;56.468;84.952;2023-07-08T03:45:04;11.32;;;6.45;;
50231;SDS011;36118;56.468;84.952;2023-07-08T03:50:12;10.37;;;6.43;;
50231;SDS011;36118;56.468;84.952;2023-07-08T03:55:21;12.90;;;6.22;;
50231;SDS011;36118;56.468;84.952;2023-07-08T04:00:26;13.93;;;6.45;;
50231;SDS011;36118;56.468;84.952;2023-07-08T04:05:31;12.40;;;6.53;;
50231;SDS011;36118;56.468;84.952;2023-07-08T04:10:34;11.00;;;6.80;;
50231;SDS011;36118;56.468;84.952;2023-07-08T04:15:39;9.65;;;6.95;;
50231;SDS011;36118;56.468;84.952;2023-07-08T04:20:42;9.50;;;6.57;;
50231;SDS011;36118;56.468;84.952;2023-07-08T04:26:04;13.82;;;7.47;;
50231;SDS011;36118;56.468;84.952;2023-07-08T04:31:07;10.30;;;6.70;;
50231;SDS011;36118;56.468;84.952;2023-07-08T04:36:13;9.82;;;6.55;;
50231;SDS011;36118;56.468;84.952;2023-07-08T04:41:16;10.07;;;6.80;;
50231;SDS011;36118;56.468;84.952;2023-07-08T04:46:23;11.25;;;7.00;;
50231;SDS011;36118;56.468;84.952;2023-07-08T04:51:49;10.60;;;6.88;;
50231;SDS011;36118;56.468;84.952;2023-07-08T04:56:53;13.45;;;6.88;;
50231;SDS011;36118;56.468;84.952;2023-07-08T05:01:57;10.93;;;6.70;;
50231;SDS011;36118;56.468;84.952;2023-07-08T05:07:01;16.17;;;7.45;;
50231;SDS011;36118;56.468;84.952;2023-07-08T05:12:03;12.85;;;8.30;;
50231;SDS011;36118;56.468;84.952;2023-07-08T05:17:09;15.05;;;8.52;;
50231;SDS011;36118;56.468;84.952;2023-07-08T05:22:13;13.27;;;8.45;;
50231;SDS011;36118;56.468;84.952;2023-07-08T05:27:15;15.60;;;9.65;;
50231;SDS011;36118;56.468;84.952;2023-07-08T05:32:19;15.07;;;9.50;;
50231;SDS011;36118;56.468;84.952;2023-07-08T05:37:23;15.73;;;9.68;;
50231;SDS011;36118;56.468;84.952;2023-07-08T05:42:27;15.45;;;8.52;;
50231;SDS011;36118;56.468;84.952;2023-07-08T05:47:31;15.25;;;9.60;;
50231;SDS011;36118;56.468;84.952;2023-07-08T05:52:35;12.95;;;8.43;;
50231;SDS011;36118;56.468;84.952;2023-07-08T05:57:38;15.82;;;9.35;;
50231;SDS011;36118;56.468;84.952;2023-07-08T06:02:40;13.55;;;9.50;;
50231;SDS011;36118;56.468;84.952;2023-07-08T06:07:46;13.60;;;9.40;;
50231;SDS011;36118;56.468;84.952;2023-07-08T06:12:49;13.75;;;9.43;;
50231;SDS011;36118;56.468;84.952;2023-07-08T06:17:52;14.02;;;10.25;;
50231;SDS011;36118;56.468;84.952;2023-07-08T06:22:55;18.70;;;10.40;;
50231;SDS011;36118;56.468;84.952;2023-07-08T06:27:59;18.13;;;11.02;;
50231;SDS011;36118;56.468;84.952;2023-07-08T06:33:02;13.73;;;10.95;;
50231;SDS011;36118;56.468;84.952;2023-07-08T06:38:06;15.23;;;11.20;;
50231;SDS011;36118;56.468;84.952;2023-07-08T06:43:09;15.77;;;11.23;;
50231;SDS011;36118;56.468;84.952;2023-07-08T06:48:18;16.50;;;11.50;;
50231;SDS011;36118;56.468;84.952;2023-07-08T06:53:21;15.40;;;11.50;;
50231;SDS011;36118;56.468;84.952;2023-07-08T06:58:24;14.63;;;11.35;;
50231;SDS011;36118;56.468;84.952;2023-07-08T07:03:27;15.10;;;11.35;;
50231;SDS011;36118;56.468;84.952;2023-07-08T07:08:30;13.90;;;11.82;;
50231;SDS011;36118;56.468;84.952;2023-07-08T07:13:33;13.73;;;11.30;;
50231;SDS011;36118;56.468;84.952;2023-07-08T07:18:37;18.20;;;11.98;;
50231;SDS011;36118;56.468;84.952;2023-07-08T07:23:41;16.33;;;12.63;;
50231;SDS011;36118;56.468;84.952;2023-07-08T07:28:45;15.55;;;12.55;;
50231;SDS011;36118;56.468;84.952;2023-07-08T07:33:48;18.48;;;12.77;;
50231;SDS011;36118;56.468;84.952;2023-07-08T07:38:54;16.98;;;12.73;;
50231;SDS011;36118;56.468;84.952;2023-07-08T07:43:57;17.98;;;13.75;;
50231;SDS011;36118;56.468;84.952;2023-07-08T07:49:00;20.23;;;13.65;;
50231;SDS011;36118;56.468;84.952;2023-07-08T07:54:03;20.90;;;14.05;;
50231;SDS011;36118;56.468;84.952;2023-07-08T07:59:06;17.33;;;14.18;;
50231;SDS011;36118;56.468;84.952;2023-07-08T08:04:09;19.10;;;15.07;;
50231;SDS011;36118;56.468;84.952;2023-07-08T08:09:12;17.33;;;15.43;;
50231;SDS011;36118;56.468;84.952;2023-07-08T08:14:15;20.85;;;16.08;;
50231;SDS011;36118;56.468;84.952;2023-07-08T08:19:19;23.00;;;16.43;;
50231;SDS011;36118;56.468;84.952;2023-07-08T08:24:23;16.88;;;14.82;;
50231;SDS011;36118;56.468;84.952;2023-07-08T08:29:28;16.30;;;13.80;;
50231;SDS011;36118;56.468;84.952;2023-07-08T08:34:33;11.13;;;8.43;;
50231;SDS011;36118;56.468;84.952;2023-07-08T08:39:36;10.25;;;9.20;;
50231;SDS011;36118;56.468;84.952;2023-07-08T08:44:39;11.90;;;10.40;;
50231;SDS011;36118;56.468;84.952;2023-07-08T08:49:49;13.60;;;11.02;;
50231;SDS011;36118;56.468;84.952;2023-07-08T08:54:54;14.18;;;11.07;;
50231;SDS011;36118;56.468;84.952;2023-07-08T08:59:57;9.98;;;8.20;;
50231;SDS011;36118;56.468;84.952;2023-07-08T09:05:04;10.85;;;8.48;;
50231;SDS011;36118;56.468;84.952;2023-07-08T09:10:19;9.65;;;8.25;;
50231;SDS011;36118;56.468;84.952;2023-07-08T09:15:44;10.50;;;9.13;;
50231;SDS011;36118;56.468;84.952;2023-07-08T09:20:48;11.50;;;9.20;;
50231;SDS011;36118;56.468;84.952;2023-07-08T09:25:52;13.27;;;9.50;;
50231;SDS011;36118;56.468;84.952;2023-07-08T09:31:00;11.02;;;9.48;;
50231;SDS011;36118;56.468;84.952;2023-07-08T09:36:15;13.20;;;9.80;;
50231;SDS011;36118;56.468;84.952;2023-07-08T09:41:30;15.75;;;10.07;;
50231;SDS011;36118;56.468;84.952;2023-07-08T09:46:37;14.82;;;10.85;;
50231;SDS011;36118;56.468;84.952;2023-07-08T09:51:40;15.10;;;10.68;;
50231;SDS011;36118;56.468;84.952;2023-07-08T09:56:44;11.68;;;10.05;;
50231;SDS011;36118;56.468;84.952;2023-07-08T10:01:53;18.27;;;11.63;;
50231;SDS011;36118;56.468;84.952;2023-07-08T10:06:56;13.85;;;10.25;;
50231;SDS011;36118;56.468;84.952;2023-07-08T10:12:00;13.27;;;10.27;;
50231;SDS011;36118;56.468;84.952;2023-07-08T10:17:05;13.15;;;9.90;;
50231;SDS011;36118;56.468;84.952;2023-07-08T10:33:20;12.63;;;9.15;;
50231;SDS011;36118;56.468;84.952;2023-07-08T10:38:50;11.07;;;9.90;;
50231;SDS011;36118;56.468;84.952;2023-07-08T10:49:20;13.55;;;9.45;;
50231;SDS011;36118;56.468;84.952;2023-07-08T11:09:56;11.23;;;9.40;;
50231;SDS011;36118;56.468;84.952;2023-07-08T11:15:12;11.25;;;9.52;;
50231;SDS011;36118;56.468;84.952;2023-07-08T11:25:37;12.40;;;8.70;;
50231;SDS011;36118;56.468;84.952;2023-07-08T11:30:41;10.87;;;8.97;;
50231;SDS011;36118;56.468;84.952;2023-07-08T11:35:49;12.70;;;9.32;;
50231;SDS011;36118;56.468;84.952;2023-07-08T11:41:01;19.27;;;9.57;;
50231;SDS011;36118;56.468;84.952;2023-07-08T11:46:06;15.82;;;11.10;;
50231;SDS011;36118;56.468;84.952;2023-07-08T11:51:10;14.70;;;8.77;;
50231;SDS011;36118;56.468;84.952;2023-07-08T11:56:22;11.38;;;8.80;;
50231;SDS011;36118;56.468;84.952;2023-07-08T12:01:32;12.38;;;8.73;;
50231;SDS011;36118;56.468;84.952;2023-07-08T12:06:42;12.60;;;8.77;;
50231;SDS011;36118;56.468;84.952;2023-07-08T12:11:51;12.85;;;8.50;;
50231;SDS011;36118;56.468;84.952;2023-07-08T12:16:56;13.07;;;8.98;;
50231;SDS011;36118;56.468;84.952;2023-07-08T12:21:59;12.30;;;8.65;;
50231;SDS011;36118;56.468;84.952;2023-07-08T12:27:02;10.10;;;8.27;;
50231;SDS011;36118;56.468;84.952;2023-07-08T12:32:05;13.05;;;10.00;;
50231;SDS011;36118;56.468;84.952;2023-07-08T12:37:11;11.63;;;9.50;;
50231;SDS011;36118;56.468;84.952;2023-07-08T12:42:15;10.83;;;9.63;;
50231;SDS011;36118;56.468;84.952;2023-07-08T12:47:19;11.90;;;9.75;;
50231;SDS011;36118;56.468;84.952;2023-07-08T12:52:23;15.35;;;9.48;;
50231;SDS011;36118;56.468;84.952;2023-07-08T12:57:26;11.32;;;9.65;;
50231;SDS011;36118;56.468;84.952;2023-07-08T13:02:29;13.60;;;11.68;;
50231;SDS011;36118;56.468;84.952;2023-07-08T13:07:38;16.95;;;13.43;;
50231;SDS011;36118;56.468;84.952;2023-07-08T13:12:43;15.00;;;12.95;;
50231;SDS011;36118;56.468;84.952;2023-07-08T13:17:46;15.70;;;14.00;;
50231;SDS011;36118;56.468;84.952;2023-07-08T13:23:00;20.58;;;13.73;;
50231;SDS011;36118;56.468;84.952;2023-07-08T13:28:23;16.20;;;12.73;;
50231;SDS011;36118;56.468;84.952;2023-07-08T13:33:31;13.25;;;10.93;;
50231;SDS011;36118;56.468;84.952;2023-07-08T13:38:35;12.13;;;10.88;;
50231;SDS011;36118;56.468;84.952;2023-07-08T13:48:43;13.20;;;10.88;;
50231;SDS011;36118;56.468;84.952;2023-07-08T13:53:50;12.43;;;9.68;;
50231;SDS011;36118;56.468;84.952;2023-07-08T13:59:00;10.45;;;9.45;;
50231;SDS011;36118;56.468;84.952;2023-07-08T14:04:06;12.98;;;10.52;;
50231;SDS011;36118;56.468;84.952;2023-07-08T14:09:14;12.38;;;10.20;;
50231;SDS011;36118;56.468;84.952;2023-07-08T14:14:18;11.98;;;10.77;;
50231;SDS011;36118;56.468;84.952;2023-07-08T14:19:29;12.95;;;10.32;;
50231;SDS011;36118;56.468;84.952;2023-07-08T14:24:34;12.48;;;10.40;;
50231;SDS011;36118;56.468;84.952;2023-07-08T14:29:37;13.02;;;10.30;;
50231;SDS011;36118;56.468;84.952;2023-07-08T14:34:47;14.73;;;10.07;;
50231;SDS011;36118;56.468;84.952;2023-07-08T14:39:52;12.93;;;10.43;;
50231;SDS011;36118;56.468;84.952;2023-07-08T14:44:55;12.52;;;10.20;;
50231;SDS011;36118;56.468;84.952;2023-07-08T14:49:59;13.10;;;11.43;;
50231;SDS011;36118;56.468;84.952;2023-07-08T14:55:04;14.02;;;11.30;;
50231;SDS011;36118;56.468;84.952;2023-07-08T15:00:09;16.25;;;12.30;;
50231;SDS011;36118;56.468;84.952;2023-07-08T15:05:24;17.17;;;12.20;;
50231;SDS011;36118;56.468;84.952;2023-07-08T15:10:29;13.30;;;11.07;;
50231;SDS011;36118;56.468;84.952;2023-07-08T15:15:34;13.55;;;10.85;;
50231;SDS011;36118;56.468;84.952;2023-07-08T15:20:42;13.88;;;10.75;;
50231;SDS011;36118;56.468;84.952;2023-07-08T15:25:45;13.82;;;10.93;;
50231;SDS011;36118;56.468;84.952;2023-07-08T15:30:49;14.85;;;11.07;;
50231;SDS011;36118;56.468;84.952;2023-07-08T15:35:54;13.60;;;10.02;;
50231;SDS011;36118;56.468;84.952;2023-07-08T15:40:57;13.60;;;10.45;;
50231;SDS011;36118;56.468;84.952;2023-07-08T15:46:02;10.70;;;9.50;;
50231;SDS011;36118;56.468;84.952;2023-07-08T15:51:05;12.63;;;9.65;;
50231;SDS011;36118;56.468;84.952;2023-07-08T15:56:11;12.75;;;8.60;;
50231;SDS011;36118;56.468;84.952;2023-07-08T16:01:16;10.45;;;9.32;;
50231;SDS011;36118;56.468;84.952;2023-07-08T16:06:22;9.85;;;8.10;;
50231;SDS011;36118;56.468;84.952;2023-07-08T16:16:32;11.68;;;8.50;;
50231;SDS011;36118;56.468;84.952;2023-07-08T16:21:35;10.68;;;8.02;;
50231;SDS011;36118;56.468;84.952;2023-07-08T16:26:38;10.40;;;8.45;;
50231;SDS011;36118;56.468;84.952;2023-07-08T16:31:41;11.80;;;8.70;;
50231;SDS011;36118;56.468;84.952;2023-07-08T16:36:44;11.63;;;9.00;;
50231;SDS011;36118;56.468;84.952;2023-07-08T16:41:47;10.10;;;8.30;;
50231;SDS011;36118;56.468;84.952;2023-07-08T16:46:51;12.30;;;8.85;;
50231;SDS011;36118;56.468;84.952;2023-07-08T16:51:54;14.55;;;8.90;;
50231;SDS011;36118;56.468;84.952;2023-07-08T16:56:57;12.48;;;8.88;;
50231;SDS011;36118;56.468;84.952;2023-07-08T17:01:59;13.05;;;8.60;;
50231;SDS011;36118;56.468;84.952;2023-07-08T17:07:04;10.35;;;8.82;;
50231;SDS011;36118;56.468;84.952;2023-07-08T17:12:11;12.38;;;9.57;;
50231;SDS011;36118;56.468;84.952;2023-07-08T17:17:14;9.65;;;8.65;;
50231;SDS011;36118;56.468;84.952;2023-07-08T17:22:19;13.38;;;9.50;;
50231;SDS011;36118;56.468;84.952;2023-07-08T17:27:21;12.82;;;9.80;;
50231;SDS011;36118;56.468;84.952;2023-07-08T17:32:24;13.55;;;10.13;;
50231;SDS011;36118;56.468;84.952;2023-07-08T17:37:27;12.80;;;10.30;;
50231;SDS011;36118;56.468;84.952;2023-07-08T17:42:30;12.23;;;10.52;;
50231;SDS011;36118;56.468;84.952;2023-07-08T17:47:34;11.80;;;10.57;;
50231;SDS011;36118;56.468;84.952;2023-07-08T17:52:38;18.98;;;11.98;;
50231;SDS011;36118;56.468;84.952;2023-07-08T17:57:41;12.60;;;10.88;;
50231;SDS011;36118;56.468;84.952;2023-07-08T18:02:45;12.52;;;10.93;;
50231;SDS011;36118;56.468;84.952;2023-07-08T18:07:49;14.45;;;10.00;;
50231;SDS011;36118;56.468;84.952;2023-07-08T18:12:52;11.43;;;9.48;;
50231;SDS011;36118;56.468;84.952;2023-07-08T18:17:56;11.95;;;9.98;;
50231;SDS011;36118;56.468;84.952;2023-07-08T18:23:02;12.65;;;11.32;;
50231;SDS011;36118;56.468;84.952;2023-07-08T18:28:11;12.10;;;8.90;;
50231;SDS011;36118;56.468;84.952;2023-07-08T18:33:17;12.45;;;8.82;;
50231;SDS011;36118;56.468;84.952;2023-07-08T18:38:24;12.52;;;9.50;;
50231;SDS011;36118;56.468;84.952;2023-07-08T18:43:28;11.85;;;10.05;;
50231;SDS011;36118;56.468;84.952;2023-07-08T18:48:32;10.82;;;9.45;;
50231;SDS011;36118;56.468;84.952;2023-07-08T18:53:35;13.05;;;9.80;;
50231;SDS011;36118;56.468;84.952;2023-07-08T18:58:38;10.50;;;8.77;;
50231;SDS011;36118;56.468;84.952;2023-07-08T19:03:41;13.80;;;9.18;;
50231;SDS011;36118;56.468;84.952;2023-07-08T19:08:45;12.63;;;9.18;;
50231;SDS011;36118;56.468;84.952;2023-07-08T19:18:54;11.30;;;9.33;;
50231;SDS011;36118;56.468;84.952;2023-07-08T19:23:57;10.57;;;9.48;;
50231;SDS011;36118;56.468;84.952;2023-07-08T19:29:01;10.93;;;9.73;;
50231;SDS011;36118;56.468;84.952;2023-07-08T19:34:24;11.13;;;9.98;;
50231;SDS011;36118;56.468;84.952;2023-07-08T19:39:28;11.90;;;10.00;;
50231;SDS011;36118;56.468;84.952;2023-07-08T19:44:31;12.85;;;10.50;;
50231;SDS011;36118;56.468;84.952;2023-07-08T19:49:34;12.70;;;9.30;;
50231;SDS011;36118;56.468;84.952;2023-07-08T19:54:37;11.85;;;10.65;;
50231;SDS011;36118;56.468;84.952;2023-07-08T19:59:40;12.65;;;11.27;;
50231;SDS011;36118;56.468;84.952;2023-07-08T20:04:44;13.80;;;10.40;;
50231;SDS011;36118;56.468;84.952;2023-07-08T20:09:50;13.13;;;10.77;;
50231;SDS011;36118;56.468;84.952;2023-07-08T20:14:53;14.60;;;10.75;;
50231;SDS011;36118;56.468;84.952;2023-07-08T20:19:58;13.35;;;11.50;;
50231;SDS011;36118;56.468;84.952;2023-07-08T20:25:04;12.43;;;11.07;;
50231;SDS011;36118;56.468;84.952;2023-07-08T20:30:24;12.95;;;11.57;;
50231;SDS011;36118;56.468;84.952;2023-07-08T20:35:29;14.65;;;11.07;;
50231;SDS011;36118;56.468;84.952;2023-07-08T20:40:32;12.60;;;11.30;;
50231;SDS011;36118;56.468;84.952;2023-07-08T20:45:36;14.17;;;11.97;;
50231;SDS011;36118;56.468;84.952;2023-07-08T20:50:40;14.02;;;11.32;;
50231;SDS011;36118;56.468;84.952;2023-07-08T20:55:43;15.07;;;10.93;;
50231;SDS011;36118;56.468;84.952;2023-07-08T21:00:47;12.88;;;11.48;;
50231;SDS011;36118;56.468;84.952;2023-07-08T21:05:52;12.23;;;11.10;;
50231;SDS011;36118;56.468;84.952;2023-07-08T21:10:56;13.55;;;11.50;;
50231;SDS011;36118;56.468;84.952;2023-07-08T21:15:59;13.00;;;11.70;;
50231;SDS011;36118;56.468;84.952;2023-07-08T21:21:03;13.60;;;12.20;;
50231;SDS011;36118;56.468;84.952;2023-07-08T21:26:20;14.20;;;12.77;;
50231;SDS011;36118;56.468;84.952;2023-07-08T21:31:28;15.95;;;13.82;;
50231;SDS011;36118;56.468;84.952;2023-07-08T21:36:33;15.32;;;13.77;;
50231;SDS011;36118;56.468;84.952;2023-07-08T21:41:36;15.43;;;13.73;;
50231;SDS011;36118;56.468;84.952;2023-07-08T21:46:40;16.50;;;14.73;;
50231;SDS011;36118;56.468;84.952;2023-07-08T21:51:43;16.23;;;14.20;;
50231;SDS011;36118;56.468;84.952;2023-07-08T21:56:47;16.27;;;14.57;;
50231;SDS011;36118;56.468;84.952;2023-07-08T22:01:49;16.17;;;14.48;;
50231;SDS011;36118;56.468;84.952;2023-07-08T22:06:53;17.45;;;15.65;;
50231;SDS011;36118;56.468;84.952;2023-07-08T22:11:56;19.58;;;14.93;;
50231;SDS011;36118;56.468;84.952;2023-07-08T22:16:59;17.48;;;15.48;;
50231;SDS011;36118;56.468;84.952;2023-07-08T22:22:12;24.02;;;18.23;;
50231;SDS011;36118;56.468;84.952;2023-07-08T22:27:15;21.80;;;18.77;;
50231;SDS011;36118;56.468;84.952;2023-07-08T22:32:18;24.77;;;19.00;;
50231;SDS011;36118;56.468;84.952;2023-07-08T22:37:21;21.15;;;18.00;;
50231;SDS011;36118;56.468;84.952;2023-07-08T22:42:26;21.13;;;17.38;;
50231;SDS011;36118;56.468;84.952;2023-07-08T22:47:30;24.80;;;17.60;;
50231;SDS011;36118;56.468;84.952;2023-07-08T22:52:34;20.67;;;16.98;;
50231;SDS011;36118;56.468;84.952;2023-07-08T22:57:37;19.57;;;17.47;;
50231;SDS011;36118;56.468;84.952;2023-07-08T23:02:40;19.20;;;17.20;;
50231;SDS011;36118;56.468;84.952;2023-07-08T23:07:44;21.65;;;17.20;;
50231;SDS011;36118;56.468;84.952;2023-07-08T23:12:47;19.60;;;17.45;;
50231;SDS011;36118;56.468;84.952;2023-07-08T23:17:50;19.65;;;17.08;;
50231;SDS011;36118;56.468;84.952;2023-07-08T23:22:54;23.30;;;18.87;;
50231;SDS011;36118;56.468;84.952;2023-07-08T23:27:57;23.98;;;19.17;;
50231;SDS011;36118;56.468;84.952;2023-07-08T23:33:00;20.33;;;17.67;;
50231;SDS011;36118;56.468;84.952;2023-07-08T23:38:03;20.58;;;16.88;;
50231;SDS011;36118;56.468;84.952;2023-07-08T23:43:07;21.77;;;18.20;;
50231;SDS011;36118;56.468;84.952;2023-07-08T23:48:18;17.85;;;15.15;;
50231;SDS011;36118;56.468;84.952;2023-07-08T23:53:21;17.63;;;15.00;;
50231;SDS011;36118;56.468;84.952;2023-07-08T23:58:24;16.13;;;14.40;;
